createdAt,value
2019-04-28T00:02:01.323Z,6.48
2019-04-28T00:04:48.994Z,6.38
2019-04-28T00:07:36.142Z,6.41
2019-04-28T00:10:23.866Z,6.28
2019-04-28T00:13:11.220Z,6.21
2019-04-28T00:15:58.706Z,6.17
2019-04-28T00:18:46.141Z,6.16
2019-04-28T00:21:45.454Z,6.13
2019-04-28T00:25:03.989Z,6.03
2019-04-28T00:27:51.647Z,6.11
2019-04-28T00:30:39.168Z,6.13
2019-04-28T00:33:26.873Z,6.20
2019-04-28T00:36:14.568Z,6.17
2019-04-28T00:39:01.862Z,6.14
2019-04-28T00:41:49.492Z,6.07
2019-04-28T00:44:37.050Z,6.02
2019-04-28T00:47:24.910Z,6.06
2019-04-28T00:50:12.305Z,6.10
2019-04-28T00:53:01.613Z,6.06
2019-04-28T00:55:48.692Z,5.96
2019-04-28T00:58:36.404Z,5.96
2019-04-28T01:01:40.680Z,5.90
2019-04-28T01:04:29.108Z,5.91
2019-04-28T01:07:16.591Z,5.95
2019-04-28T01:10:04.640Z,5.83
2019-04-28T01:12:52.355Z,5.78
2019-04-28T01:15:50.069Z,5.83
2019-04-28T01:18:43.164Z,5.81
2019-04-28T01:21:50.257Z,5.90
2019-04-28T01:24:39.756Z,5.82
2019-04-28T01:27:46.820Z,5.79
2019-04-28T01:30:53.693Z,5.78
2019-04-28T01:34:03.131Z,5.74
2019-04-28T01:36:51.633Z,5.77
2019-04-28T01:39:41.175Z,5.75
2019-04-28T01:42:30.230Z,5.71
2019-04-28T01:45:17.601Z,5.75
2019-04-28T01:48:05.278Z,5.75
2019-04-28T01:50:52.903Z,5.76
2019-04-28T01:53:40.494Z,5.75
2019-04-28T01:56:27.832Z,5.80
2019-04-28T01:59:15.154Z,5.78
2019-04-28T02:02:02.702Z,5.72
2019-04-28T02:04:50.446Z,5.69
2019-04-28T02:07:40.582Z,5.65
2019-04-28T02:10:27.285Z,5.70
2019-04-28T02:13:15.004Z,5.76
2019-04-28T02:16:02.263Z,5.80
2019-04-28T02:18:49.909Z,5.77
2019-04-28T02:21:53.044Z,5.63
2019-04-28T02:24:40.758Z,5.65
2019-04-28T02:27:30.065Z,5.57
2019-04-28T02:30:17.252Z,5.52
2019-04-28T02:33:04.685Z,5.50
2019-04-28T02:35:52.389Z,5.42
2019-04-28T02:38:41.366Z,5.38
2019-04-28T02:41:30.654Z,5.46
2019-04-28T02:44:23.105Z,5.49
2019-04-28T02:47:07.044Z,5.48
2019-04-28T02:50:13.704Z,5.47
2019-04-28T02:53:25.773Z,5.57
2019-04-28T02:56:13.228Z,5.63
2019-04-28T02:59:01.027Z,5.67
2019-04-28T03:01:50.915Z,5.50
2019-04-28T03:04:40.881Z,5.35
2019-04-28T03:07:27.840Z,5.55
2019-04-28T03:10:15.945Z,5.66
2019-04-28T03:13:03.486Z,5.54
2019-04-28T03:15:51.635Z,5.64
2019-04-28T03:18:41.283Z,5.56
2019-04-28T03:21:31.090Z,5.64
2019-04-28T03:24:17.350Z,5.64
2019-04-28T03:27:32.938Z,5.63
2019-04-28T03:30:38.226Z,5.56
2019-04-28T03:33:26.852Z,5.41
2019-04-28T03:36:15.845Z,5.49
2019-04-28T03:39:04.603Z,5.34
2019-04-28T03:41:52.592Z,5.47
2019-04-28T03:44:41.375Z,5.37
2019-04-28T03:47:31.130Z,5.36
2019-04-28T03:50:20.275Z,5.35
2019-04-28T03:53:07.773Z,5.37
2019-04-28T03:55:55.574Z,5.51
2019-04-28T03:58:43.271Z,5.48
2019-04-28T04:01:30.923Z,5.44
2019-04-28T04:04:17.973Z,5.36
2019-04-28T04:07:05.400Z,5.47
2019-04-28T04:10:02.889Z,5.46
2019-04-28T04:13:01.011Z,5.33
2019-04-28T04:16:01.627Z,5.33
2019-04-28T04:18:53.778Z,5.53
2019-04-28T04:21:40.765Z,5.33
2019-04-28T04:24:30.611Z,5.32
2019-04-28T04:27:20.769Z,5.22
2019-04-28T04:30:07.060Z,5.14
2019-04-28T04:32:54.348Z,5.16
2019-04-28T04:35:43.626Z,5.15
2019-04-28T04:38:31.595Z,5.20
2019-04-28T04:41:20.241Z,5.28
2019-04-28T04:44:10.921Z,5.11
2019-04-28T04:46:57.442Z,5.25
2019-04-28T04:49:45.180Z,5.30
2019-04-28T04:52:33.116Z,5.18
2019-04-28T04:55:21.186Z,5.09
2019-04-28T04:58:10.757Z,5.05
2019-04-28T05:01:06.266Z,5.24
2019-04-28T05:03:55.238Z,5.16
2019-04-28T05:06:42.782Z,5.38
2019-04-28T05:09:31.192Z,5.66
2019-04-28T05:12:19.614Z,5.81
2019-04-28T05:15:07.469Z,6.26
2019-04-28T05:17:54.887Z,6.80
2019-04-28T05:20:42.883Z,7.49
2019-04-28T05:23:39.925Z,7.30
2019-04-28T05:26:27.818Z,7.14
2019-04-28T05:29:15.313Z,6.44
2019-04-28T05:32:03.488Z,6.03
2019-04-28T05:34:52.888Z,5.72
2019-04-28T05:37:40.568Z,5.43
2019-04-28T05:40:29.581Z,5.30
2019-04-28T05:43:17.456Z,5.33
2019-04-28T05:46:04.763Z,5.19
2019-04-28T05:49:10.252Z,5.24
2019-04-28T05:52:01.343Z,5.11
2019-04-28T05:54:55.154Z,5.10
2019-04-28T05:57:53.048Z,5.00
2019-04-28T06:00:53.480Z,4.97
2019-04-28T06:03:41.526Z,4.95
2019-04-28T06:06:31.903Z,4.88
2019-04-28T06:09:47.574Z,4.55
2019-04-28T06:12:35.235Z,4.63
2019-04-28T06:15:23.375Z,4.70
2019-04-28T06:18:10.904Z,4.74
2019-04-28T06:20:58.611Z,4.53
2019-04-28T06:23:46.320Z,4.64
2019-04-28T06:26:34.068Z,4.56
2019-04-28T06:29:21.599Z,4.50
2019-04-28T06:32:09.202Z,4.59
2019-04-28T06:34:56.626Z,4.67
2019-04-28T06:37:44.111Z,4.73
2019-04-28T06:40:31.724Z,4.80
2019-04-28T06:43:19.296Z,4.92
2019-04-28T06:46:07.160Z,4.97
2019-04-28T06:48:54.728Z,4.91
2019-04-28T06:51:42.287Z,4.97
2019-04-28T06:54:30.852Z,4.90
2019-04-28T06:57:18.538Z,4.79
2019-04-28T07:00:07.276Z,4.87
2019-04-28T07:02:54.342Z,4.95
2019-04-28T07:05:41.872Z,4.91
2019-04-28T07:08:29.294Z,4.85
2019-04-28T07:11:16.980Z,4.86
2019-04-28T07:14:04.159Z,4.63
2019-04-28T07:16:52.003Z,4.66
2019-04-28T07:19:39.857Z,4.73
2019-04-28T07:22:29.140Z,4.66
2019-04-28T07:25:16.781Z,4.33
2019-04-28T07:28:04.735Z,4.72
2019-04-28T07:30:52.298Z,4.80
2019-04-28T07:33:40.143Z,4.73
2019-04-28T07:36:28.313Z,4.88
2019-04-28T07:39:16.005Z,5.07
2019-04-28T07:42:03.727Z,5.02
2019-04-28T07:44:51.288Z,5.19
2019-04-28T07:47:39.203Z,5.32
2019-04-28T07:50:26.798Z,5.41
2019-04-28T07:53:19.341Z,5.69
2019-04-28T07:56:07.085Z,5.70
2019-04-28T07:58:54.746Z,6.21
2019-04-28T08:01:42.176Z,7.07
2019-04-28T08:04:29.659Z,7.59
2019-04-28T08:07:16.929Z,7.92
2019-04-28T08:10:04.140Z,8.33
2019-04-28T08:12:51.740Z,7.91
2019-04-28T08:15:39.400Z,7.40
2019-04-28T08:18:26.609Z,7.07
2019-04-28T08:21:15.573Z,7.24
2019-04-28T08:24:03.522Z,7.24
2019-04-28T08:26:51.372Z,7.41
2019-04-28T08:29:38.793Z,7.64
2019-04-28T08:32:34.887Z,8.02
2019-04-28T08:35:23.063Z,7.86
2019-04-28T08:38:10.583Z,7.71
2019-04-28T08:40:58.366Z,8.00
2019-04-28T08:43:45.581Z,8.31
2019-04-28T08:46:33.014Z,8.25
2019-04-28T08:49:20.716Z,9.17
2019-04-28T08:52:08.226Z,10.67
2019-04-28T08:54:55.477Z,11.78
2019-04-28T08:57:42.939Z,11.26
2019-04-28T09:00:30.712Z,11.47
2019-04-28T09:03:17.965Z,11.50
2019-04-28T09:06:05.944Z,11.19
2019-04-28T09:08:53.760Z,10.55
2019-04-28T09:11:41.750Z,10.34
2019-04-28T09:14:29.523Z,10.08
2019-04-28T09:17:17.351Z,10.08
2019-04-28T09:20:05.487Z,10.06
2019-04-28T09:22:53.354Z,10.09
2019-04-28T09:25:41.063Z,9.74
2019-04-28T09:28:28.557Z,9.70
2019-04-28T09:31:15.999Z,9.58
2019-04-28T09:34:03.970Z,9.93
2019-04-28T09:36:51.930Z,10.24
2019-04-28T09:39:52.422Z,10.34
2019-04-28T09:42:58.152Z,10.41
2019-04-28T09:45:54.247Z,10.39
2019-04-28T09:48:42.053Z,10.26
2019-04-28T09:51:29.479Z,10.09
2019-04-28T09:54:16.950Z,9.50
2019-04-28T09:57:04.293Z,9.10
2019-04-28T09:59:52.989Z,8.65
2019-04-28T10:02:40.558Z,8.88
2019-04-28T10:05:28.355Z,9.55
2019-04-28T10:08:16.214Z,9.93
2019-04-28T10:11:03.901Z,10.42
2019-04-28T10:13:51.423Z,10.21
2019-04-28T10:16:38.873Z,10.65
2019-04-28T10:19:26.185Z,10.88
2019-04-28T10:22:13.776Z,11.14
2019-04-28T10:25:00.870Z,11.40
2019-04-28T10:27:48.127Z,11.57
2019-04-28T10:30:35.688Z,11.43
2019-04-28T10:33:23.172Z,11.59
2019-04-28T10:36:10.625Z,11.58
2019-04-28T10:39:17.752Z,11.88
2019-04-28T10:42:05.180Z,11.75
2019-04-28T10:44:52.894Z,12.17
2019-04-28T10:47:40.007Z,12.16
2019-04-28T10:50:27.561Z,12.03
2019-04-28T10:53:15.294Z,12.15
2019-04-28T10:56:02.799Z,11.80
2019-04-28T10:58:51.976Z,11.69
2019-04-28T11:01:39.361Z,11.24
2019-04-28T11:04:47.656Z,10.76
2019-04-28T11:07:35.483Z,11.21
2019-04-28T11:10:23.309Z,11.38
2019-04-28T11:13:10.432Z,11.47
2019-04-28T11:15:58.220Z,11.52
2019-04-28T11:18:46.224Z,11.80
2019-04-28T11:21:33.614Z,11.89
2019-04-28T11:24:21.091Z,11.63
2019-04-28T11:27:09.289Z,11.34
2019-04-28T11:29:56.776Z,11.45
2019-04-28T11:32:52.034Z,11.70
2019-04-28T11:35:39.823Z,11.71
2019-04-28T11:38:27.557Z,11.66
2019-04-28T11:41:15.347Z,12.05
2019-04-28T11:44:03.096Z,12.04
2019-04-28T11:46:50.667Z,12.48
2019-04-28T11:49:38.005Z,12.87
2019-04-28T11:52:25.497Z,11.98
2019-04-28T11:55:13.093Z,12.03
2019-04-28T11:58:00.993Z,12.39
2019-04-28T12:00:48.652Z,12.39
2019-04-28T12:03:36.144Z,12.10
2019-04-28T12:06:23.774Z,12.30
2019-04-28T12:09:36.855Z,11.63
2019-04-28T12:12:55.878Z,11.39
2019-04-28T12:16:08.077Z,11.76
2019-04-28T12:19:02.646Z,11.63
2019-04-28T12:21:50.467Z,11.59
2019-04-28T12:24:38.174Z,11.55
2019-04-28T12:27:25.815Z,11.64
2019-04-28T12:30:13.545Z,11.58
2019-04-28T12:33:01.323Z,11.63
2019-04-28T12:35:49.070Z,11.96
2019-04-28T12:38:36.755Z,12.42
2019-04-28T12:41:24.737Z,12.57
2019-04-28T12:44:12.527Z,12.44
2019-04-28T12:47:00.002Z,11.68
2019-04-28T12:49:55.389Z,11.08
2019-04-28T12:52:42.907Z,10.79
2019-04-28T12:55:30.366Z,10.15
2019-04-28T12:58:18.246Z,9.67
2019-04-28T13:01:25.161Z,9.08
2019-04-28T13:04:30.572Z,8.96
2019-04-28T13:07:18.068Z,9.05
2019-04-28T13:10:05.767Z,9.24
2019-04-28T13:12:53.112Z,9.50
2019-04-28T13:15:41.153Z,9.78
2019-04-28T13:18:28.828Z,9.89
2019-04-28T13:21:16.899Z,10.03
2019-04-28T13:24:04.185Z,9.84
2019-04-28T13:26:52.399Z,9.87
2019-04-28T13:29:39.695Z,10.06
2019-04-28T13:32:27.068Z,10.26
2019-04-28T13:35:15.219Z,10.18
2019-04-28T13:38:03.048Z,10.30
2019-04-28T13:40:51.046Z,10.56
2019-04-28T13:43:38.480Z,10.43
2019-04-28T13:46:26.315Z,10.45
2019-04-28T13:49:15.360Z,10.57
2019-04-28T13:52:03.013Z,10.45
2019-04-28T13:54:52.922Z,10.13
2019-04-28T13:57:42.286Z,10.08
2019-04-28T14:00:39.229Z,9.55
2019-04-28T14:03:34.393Z,9.69
2019-04-28T14:06:28.390Z,9.83
2019-04-28T14:09:18.417Z,10.06
2019-04-28T14:12:05.844Z,10.31
2019-04-28T14:14:53.268Z,10.50
2019-04-28T14:17:41.264Z,10.68
2019-04-28T14:20:28.731Z,10.61
2019-04-28T14:23:16.075Z,10.78
2019-04-28T14:26:03.489Z,10.79
2019-04-28T14:28:50.987Z,10.77
2019-04-28T14:31:38.316Z,10.62
2019-04-28T14:34:25.579Z,10.61
2019-04-28T14:37:12.999Z,10.64
2019-04-28T14:40:00.769Z,10.62
2019-04-28T14:42:48.146Z,10.73
2019-04-28T14:45:35.469Z,10.73
2019-04-28T14:48:23.245Z,10.79
2019-04-28T14:51:11.068Z,10.81
2019-04-28T14:53:59.213Z,10.77
2019-04-28T14:56:46.955Z,10.90
2019-04-28T14:59:34.563Z,10.91
2019-04-28T15:02:35.527Z,10.85
2019-04-28T15:05:39.477Z,10.88
2019-04-28T15:08:37.612Z,10.87
2019-04-28T15:11:29.615Z,10.62
2019-04-28T15:14:16.681Z,10.64
2019-04-28T15:17:04.387Z,10.64
2019-04-28T15:19:51.435Z,10.74
2019-04-28T15:22:38.859Z,10.80
2019-04-28T15:25:25.937Z,10.92
2019-04-28T15:28:13.594Z,11.14
2019-04-28T15:31:01.119Z,11.02
2019-04-28T15:33:48.911Z,11.06
2019-04-28T15:36:36.005Z,11.16
2019-04-28T15:39:23.350Z,11.10
2019-04-28T15:42:10.992Z,10.93
2019-04-28T15:44:58.336Z,10.84
2019-04-28T15:47:46.229Z,10.74
2019-04-28T15:50:33.953Z,10.56
2019-04-28T15:53:21.328Z,10.45
2019-04-28T15:56:17.620Z,10.24
2019-04-28T15:59:06.665Z,10.30
2019-04-28T16:01:54.141Z,10.55
2019-04-28T16:04:43.369Z,10.79
2019-04-28T16:07:30.957Z,11.05
2019-04-28T16:10:18.326Z,11.07
2019-04-28T16:13:05.728Z,11.23
2019-04-28T16:15:53.575Z,11.17
2019-04-28T16:18:41.120Z,11.26
2019-04-28T16:21:28.567Z,11.15
2019-04-28T16:24:16.481Z,11.12
2019-04-28T16:27:04.566Z,11.11
2019-04-28T16:29:52.255Z,11.20
2019-04-28T16:32:39.646Z,11.19
2019-04-28T16:35:27.486Z,11.21
2019-04-28T16:38:15.374Z,11.18
2019-04-28T16:41:03.176Z,11.18
2019-04-28T16:43:50.531Z,11.19
2019-04-28T16:46:38.430Z,11.13
2019-04-28T16:49:25.513Z,11.25
2019-04-28T16:52:12.898Z,11.21
2019-04-28T16:55:19.499Z,11.13
2019-04-28T16:58:26.331Z,11.07
2019-04-28T17:01:25.986Z,10.99
2019-04-28T17:04:13.667Z,10.77
2019-04-28T17:07:01.015Z,10.79
2019-04-28T17:09:48.642Z,10.77
2019-04-28T17:12:36.549Z,10.71
2019-04-28T17:15:24.181Z,10.42
2019-04-28T17:18:11.872Z,10.29
2019-04-28T17:20:59.468Z,10.06
2019-04-28T17:23:47.174Z,9.84
2019-04-28T17:26:34.502Z,9.51
2019-04-28T17:29:22.670Z,9.31
2019-04-28T17:32:10.601Z,9.13
2019-04-28T17:34:58.090Z,9.10
2019-04-28T17:37:45.646Z,8.97
2019-04-28T17:40:33.785Z,8.82
2019-04-28T17:43:20.974Z,8.72
2019-04-28T17:46:08.632Z,8.68
2019-04-28T17:48:57.686Z,8.59
2019-04-28T17:51:45.373Z,8.56
2019-04-28T17:54:32.760Z,8.48
2019-04-28T17:57:20.550Z,8.41
2019-04-28T18:00:19.049Z,8.21
2019-04-28T18:03:19.687Z,8.23
2019-04-28T18:06:17.923Z,8.23
2019-04-28T18:09:06.074Z,8.21
2019-04-28T18:11:53.594Z,8.17
2019-04-28T18:14:42.912Z,8.16
2019-04-28T18:17:49.577Z,8.20
2019-04-28T18:20:37.328Z,8.19
2019-04-28T18:23:24.784Z,8.20
2019-04-28T18:26:12.529Z,8.20
2019-04-28T18:29:00.186Z,8.23
2019-04-28T18:32:06.693Z,8.09
2019-04-28T18:35:04.004Z,7.98
2019-04-28T18:37:59.670Z,7.68
2019-04-28T18:40:59.904Z,7.59
2019-04-28T18:44:06.374Z,7.39
2019-04-28T18:46:53.854Z,7.35
2019-04-28T18:49:41.348Z,7.05
2019-04-28T18:52:29.037Z,6.86
2019-04-28T18:55:16.709Z,6.57
2019-04-28T18:58:04.163Z,6.50
2019-04-28T19:01:12.444Z,6.43
2019-04-28T19:03:59.742Z,6.13
2019-04-28T19:06:47.652Z,5.90
2019-04-28T19:09:45.443Z,6.01
2019-04-28T19:12:43.394Z,5.96
2019-04-28T19:15:49.045Z,6.06
2019-04-28T19:18:38.904Z,6.05
2019-04-28T19:21:25.989Z,6.12
2019-04-28T19:24:13.310Z,6.09
2019-04-28T19:27:02.304Z,6.16
2019-04-28T19:29:49.253Z,6.19
2019-04-28T19:32:36.988Z,6.21
2019-04-28T19:35:24.605Z,6.28
2019-04-28T19:38:12.493Z,6.22
2019-04-28T19:40:59.953Z,6.23
2019-04-28T19:43:47.197Z,6.34
2019-04-28T19:46:34.699Z,6.25
2019-04-28T19:49:22.407Z,6.22
2019-04-28T19:52:10.154Z,6.35
2019-04-28T19:55:18.166Z,6.37
2019-04-28T19:58:11.481Z,6.37
2019-04-28T20:01:01.992Z,6.32
2019-04-28T20:03:49.727Z,6.37
2019-04-28T20:06:37.559Z,6.38
2019-04-28T20:09:24.897Z,6.42
2019-04-28T20:12:12.707Z,6.32
2019-04-28T20:14:59.826Z,6.24
2019-04-28T20:17:47.523Z,6.12
2019-04-28T20:20:35.358Z,5.94
2019-04-28T20:23:22.514Z,5.94
2019-04-28T20:26:10.106Z,5.90
2019-04-28T20:28:57.736Z,5.77
2019-04-28T20:31:48.649Z,5.57
2019-04-28T20:34:36.140Z,5.41
2019-04-28T20:37:32.588Z,5.46
2019-04-28T20:40:26.494Z,5.50
2019-04-28T20:43:16.161Z,5.49
2019-04-28T20:46:03.662Z,5.53
2019-04-28T20:48:51.277Z,5.53
2019-04-28T20:51:38.895Z,5.56
2019-04-28T20:54:26.275Z,5.29
2019-04-28T20:57:13.921Z,5.18
2019-04-28T21:00:01.025Z,5.39
2019-04-28T21:02:48.626Z,5.29
2019-04-28T21:05:36.708Z,5.19
2019-04-28T21:08:23.877Z,5.24
2019-04-28T21:11:11.749Z,5.41
2019-04-28T21:13:59.069Z,5.53
2019-04-28T21:16:46.473Z,5.53
2019-04-28T21:19:34.053Z,5.51
2019-04-28T21:22:21.897Z,5.58
2019-04-28T21:25:09.443Z,5.50
2019-04-28T21:27:57.066Z,5.46
2019-04-28T21:30:44.226Z,5.54
2019-04-28T21:33:31.570Z,5.66
2019-04-28T21:36:19.011Z,5.69
2019-04-28T21:39:08.279Z,5.67
2019-04-28T21:41:57.588Z,5.76
2019-04-28T21:45:00.203Z,5.64
2019-04-28T21:47:47.902Z,5.53
2019-04-28T21:50:35.428Z,5.61
2019-04-28T21:53:22.581Z,5.63
2019-04-28T21:56:10.055Z,5.53
2019-04-28T21:58:57.493Z,5.30
2019-04-28T22:01:45.205Z,5.42
2019-04-28T22:04:32.998Z,5.56
2019-04-28T22:07:20.662Z,5.49
2019-04-28T22:10:09.118Z,5.58
2019-04-28T22:12:56.547Z,5.63
2019-04-28T22:15:43.923Z,5.62
2019-04-28T22:18:32.248Z,5.73
2019-04-28T22:21:19.940Z,5.73
2019-04-28T22:24:22.451Z,5.58
2019-04-28T22:27:12.106Z,5.66
2019-04-28T22:29:59.589Z,5.81
2019-04-28T22:32:47.134Z,5.69
2019-04-28T22:35:34.819Z,5.52
2019-04-28T22:38:22.206Z,5.52
2019-04-28T22:41:09.626Z,5.18
2019-04-28T22:43:57.490Z,5.22
2019-04-28T22:46:44.979Z,5.17
2019-04-28T22:49:32.549Z,5.25
2019-04-28T22:52:20.004Z,5.25
2019-04-28T22:55:15.518Z,5.42
2019-04-28T22:58:15.839Z,5.33
2019-04-28T23:01:14.606Z,5.42
2019-04-28T23:04:11.285Z,5.31
2019-04-28T23:06:58.354Z,5.46
2019-04-28T23:09:45.510Z,5.50
2019-04-28T23:12:33.195Z,5.48
2019-04-28T23:15:20.670Z,5.53
2019-04-28T23:18:08.368Z,5.50
2019-04-28T23:20:59.016Z,5.70
2019-04-28T23:23:46.588Z,5.52
2019-04-28T23:26:34.279Z,5.64
2019-04-28T23:29:22.145Z,5.62
2019-04-28T23:32:10.147Z,5.62
2019-04-28T23:34:57.277Z,5.65
2019-04-28T23:37:44.358Z,5.42
2019-04-28T23:40:32.260Z,5.43
2019-04-28T23:43:20.749Z,5.54
2019-04-28T23:46:08.139Z,5.55
2019-04-28T23:48:55.454Z,5.40
2019-04-28T23:51:49.396Z,5.57
2019-04-28T23:54:38.971Z,5.52
2019-04-28T23:57:26.200Z,5.49
